Panther Forest, Arkansas
Current Conditions -  °F | °C
As of 11:53 AM on Thursday 27 Nov 2014 (Local Time) from KGLH Reporting Station
Broken Clouds Broken Clouds  
Wind Chill: 40°   Ceiling: 3100
Heat Index: 45°   Visibility: 10mi
Dew Point: 30°   Wind: 10mph
Humidity: 56%   Direction: 350°N
Pressure: 30.52"   Gusts: NA
Location:  33.3324°N, 91.3183°W
Report Text: KGLH 271753Z AUTO 35009KT 10SM BKN031 07/M01 A3052 RMK AO2 SLP343 T00721011 10078 20022 50003
Loading
Personal Weather Stations






























Interactive Weather Map New forecast layout! Learn more

10-Day Weather Forecast

Advertisements
Track Severe Weather on mobile